Tikaboo Peak, Nevada Weather observations

Data are for 10 minute period ending at time listed.
 Day   Time   Solar   Ave.   Ave.  Ave.  Vector  Max.   Baro.   Total    
  of    of     Rad.   Air    Rel.  Wind   Wind   Wind  Press.  Precip.   
Year   Day            Temp.  Hum.  Speed  Dir.   Gust                    
2014   (PST)  Kw/m2    F      %     mph   deg.    mph    mb.     in.     
-------------------------------------------------------------------------
 107    3:10   0.00   47.1    32   10.0   126    12.1   759.9    0.00 
 107    3:20   0.00   47.0    32   10.6   126    12.2   759.8    0.00 
 107    3:30   0.00   47.0    32    8.6   128    10.6   759.8    0.00 
 107    3:40   0.00   47.1    32   10.1   144    12.6   759.8    0.00 
 107    3:50   0.00   47.4    31    8.9   155    12.1   759.8    0.00 
 107    4:00   0.00   47.5    30    8.7   154    11.2   759.8    0.00 
 107    4:10   0.00   47.6    30    7.5   178    10.2   759.9    0.00 
 107    4:20   0.00   47.6    30    8.1   155     9.6   759.9    0.00 
 107    4:30   0.00   47.3    31    8.7   146    10.2   759.8    0.00 
 107    4:40   0.00   47.5    30    8.7   167    11.0   759.9    0.00 
 107    4:50   0.00   47.2    31    8.2   167     9.8   760.0    0.00 
 107    5:00   0.00   47.2    31    8.1   179     9.3   760.1    0.00 
 107    5:10   0.01   47.6    30    9.2   178    10.5   760.1    0.00 
 107    5:20   0.04   48.1    30    9.0   177     9.7   760.0    0.00 
 107    5:30   0.08   48.9    29    8.4   170     9.9   760.1    0.00 
 107    5:40   0.12   49.5    28    9.5   189    13.0   760.2    0.00 
 107    5:50   0.16   49.8    28    8.0   187     9.4   760.4    0.00 
 107    6:00   0.20   51.0    26    8.3   200    10.0   760.5    0.00 
 107    6:10   0.24   52.1    26    7.7   200     9.5   760.7    0.00 
 107    6:20   0.28   51.5    26    7.5   202     8.7   760.8    0.00 
 107    6:30   0.32   52.0    25    7.2   213     8.7   760.9    0.00 
 107    6:40   0.37   53.1    24    9.5   237    12.3   761.0    0.00 
 107    6:50   0.41   54.3    23    8.3   237    11.5   761.0    0.00 
 107    7:00   0.45   54.7    23    7.4   223    10.7   761.0    0.00 
 107    7:10   0.49   54.4    23    5.3   191     8.3   761.1    0.00 
 107    7:20   0.53   54.8    23    4.7   198     9.3   761.1    0.00 
 107    7:30   0.57   54.3    24    5.4   186     9.2   761.1    0.00 
 107    7:40   0.60   54.6    25    6.0   162     8.0   761.2    0.00 
 107    7:50   0.64   55.4    25    6.1   150     9.2   761.2    0.00 
 107    8:00   0.68   54.3    26    7.1   162    10.8   761.2    0.00 
 107    8:10   0.72   54.7    25    6.4   157    10.0   761.3    0.00 
 107    8:20   0.75   55.8    24    6.3   154    10.8   761.4    0.00 
 107    8:30   0.76   56.0    24    6.5   187    10.9   761.5    0.00 
 107    8:40   0.77   55.5    24    6.6   175    11.6   761.6    0.00 
 107    8:50   0.83   56.0    24    7.4   182    11.0   761.6    0.00 
 107    9:00   0.83   56.4    25    5.9   168    12.1   761.6    0.00 
 107    9:10   0.88   57.7    24    5.9   184    14.5   761.7    0.00 
 107    9:20   0.91   58.5    23    6.3   202    13.6   761.7    0.00 
 107    9:30   0.93   57.8    23    7.1   195    13.2   761.8    0.00 
 107    9:40   0.97   58.5    23    8.0   202    12.0   761.7    0.00 
 107    9:50   0.99   59.6    22    6.1   212    11.1   761.8    0.00 
 107   10:00   0.98   61.2    21    6.2   216    12.0   761.8    0.00 
 107   10:10   0.99   61.5    21    7.7   218    13.9   761.8    0.00 
 107   10:20   1.01   61.3    22    5.9   220    14.0   762.0    0.00 
 107   10:30   1.04   61.9    21    5.2   220    10.4   762.0    0.00 
 107   10:40   1.05   62.2    20    6.5   210    14.5   761.9    0.00 
 107   10:50   1.05   62.6    20    5.7   213    11.6   761.9    0.00 
 107   11:00   1.05   62.4    19    6.6   208    12.2   761.8    0.00 
 107   11:10   1.05   62.9    18    6.9   216    15.4   761.7    0.00 
 107   11:20   1.07   62.4    19    7.5   218    14.2   761.8    0.00 
 107   11:30   1.07   63.5    17    7.1   216    15.9   761.8    0.00 
 107   11:40   1.07   63.9    17    7.4   220    15.1   761.6    0.00 
 107   11:50   1.07   63.2    17   10.9   215    19.8   761.6    0.00 
 107   12:00   1.06   62.9    18   10.8   216    22.4   761.6    0.00 
 107   12:10   1.05   62.7    17   12.3   210    21.6   761.5    0.00 
 107   12:20   1.04   62.3    18   11.3   213    24.5   761.4    0.00 
 107   12:30   1.03   62.2    18   14.1   214    22.0   761.3    0.00 
 107   12:40   1.01   61.6    19   16.0   218    27.5   761.3    0.00 
 107   12:50   1.00   61.5    19   15.5   210    26.5   761.2    0.00 
 107   13:00   0.98   61.7    19   12.7   221    28.4   761.2    0.00 
 107   13:10   0.95   62.8    17   14.2   216    23.1   761.1    0.00 
 107   13:20   0.94   63.4    17   14.6   218    26.7   761.1    0.00 
 107   13:30   0.91   63.0    18   11.9   217    21.3   761.1    0.00 
 107   13:40   0.86   63.8    17   12.7   223    23.9   760.9    0.00 
 107   13:50   0.84   62.9    18   16.2   217    28.7   760.9    0.00 
 107   14:00   0.82   63.0    18   15.2   218    26.7   760.8    0.00 
 107   14:10   0.74   63.8    17   14.0   221    26.2   760.7    0.00 
 107   14:20   0.77   62.9    18   13.7   206    26.5   760.5    0.00 
 107   14:30   0.70   62.9    18   11.9   216    22.0   760.4    0.00 
 107   14:40   0.58   63.6    17   11.9   224    25.4   760.3    0.00 
 107   14:50   0.46   63.2    18   11.8   224    22.9   760.2    0.00 
 107   15:00   0.49   62.7    18   15.2   222    27.2   760.1    0.00 
 107   15:10   0.58   63.0    18   15.9   219    28.5   760.0    0.00 
 107   15:20   0.58   63.4    17   19.0   229    35.6   759.9    0.00 
 107   15:30   0.52   63.6    17   14.2   232    27.6   759.9    0.00 
 107   15:40   0.48   63.6    17   17.7   235    30.2   759.8    0.00 
 107   15:50   0.46   63.4    17   18.8   224    34.6   759.8    0.00 
 107   16:00   0.45   63.1    17   15.9   234    31.0   759.8    0.00 
 107   16:10   0.40   63.5    16   15.2   226    28.8   759.7    0.00 
 107   16:20   0.33   63.3    17   14.5   232    25.6   759.7    0.00 
 107   16:30   0.30   63.8    17   15.0   225    24.8   759.7    0.00 
 107   16:40   0.18   62.3    18   16.1   227    29.3   759.7    0.00 
 107   16:50   0.12   60.9    19   14.5   225    25.7   759.6    0.00 
 107   17:00   0.10   60.0    20   17.2   225    31.9   759.6    0.00 
 107   17:10   0.10   59.3    20   15.3   224    27.5   759.6    0.00 
 107   17:20   0.09   58.9    21   17.5   229    28.6   759.5    0.00 
 107   17:30   0.10   58.7    21   15.7   224    28.4   759.5    0.00 
 107   17:40   0.08   58.6    21   16.8   227    26.3   759.5    0.00 
 107   17:50   0.05   58.1    22   17.9   226    29.5   759.4    0.00 
 107   18:00   0.03   57.8    22   14.8   227    24.1   759.4    0.00 
 107   18:10   0.01   57.4    22   13.8   229    24.5   759.3    0.00 
 107   18:20   0.00   57.1    22   18.0   226    28.6   759.3    0.00 
 107   18:30   0.00   56.9    23   21.9   228    32.1   759.2    0.00 
 107   18:40   0.00   56.6    23   16.6   232    28.0   759.3    0.00 
 107   18:50   0.00   56.3    23   14.8   227    28.0   759.4    0.00 
 107   19:00   0.00   55.8    24   11.5   233    19.6   759.5    0.00 
 107   19:10   0.00   55.4    24   13.4   228    24.0   759.5    0.00 
 107   19:20   0.00   55.3    23   14.9   231    24.0   759.6    0.00 
 107   19:30   0.00   55.1    24   12.2   228    22.8   759.7    0.00 
 107   19:40   0.00   54.6    24   12.7   229    21.6   759.8    0.00 
 107   19:50   0.00   54.3    23   10.6   228    18.8   759.9    0.00 
 107   20:00   0.00   54.1    23   10.3   223    20.0   759.9    0.00 
 107   20:10   0.00   54.0    23   14.8   227    23.9   759.9    0.00 
 107   20:20   0.00   54.0    23   13.2   224    22.7   759.9    0.00 
 107   20:30   0.00   53.8    23   13.6   222    23.4   760.0    0.00 
 107   20:40   0.00   53.7    22   16.2   225    26.1   759.9    0.00 
 107   20:50   0.00   53.7    22   20.2   221    30.8   759.9    0.00 
 107   21:00   0.00   53.7    21   19.8   223    32.4   759.8    0.00 
 107   21:10   0.00   53.4    21   21.4   222    33.0   759.8    0.00 
 107   21:20   0.00   53.3    21   21.6   220    31.6   759.7    0.00 
 107   21:30   0.00   53.0    21   19.7   219    30.3   759.8    0.00 
 107   21:40   0.00   52.8    22   17.7   213    26.5   759.8    0.00 
 107   21:50   0.00   52.5    22   18.9   214    27.5   759.7    0.00 
 107   22:00   0.00   52.5    22   18.6   211    28.7   759.6    0.00 
 107   22:10   0.00   52.5    22   18.7   213    26.7   759.6    0.00 
 107   22:20   0.00   52.4    22   16.2   215    24.4   759.6    0.00 
 107   22:30   0.00   52.2    22   16.6   209    23.2   759.6    0.00 
 107   22:40   0.00   52.1    22   18.5   209    25.8   759.6    0.00 
 107   22:50   0.00   51.8    23   16.2   205    22.6   759.6    0.00 
 107   23:00   0.00   51.6    23   15.4   208    20.6   759.5    0.00 
 107   23:10   0.00   51.6    23   13.9   204    22.5   759.6    0.00 
 107   23:20   0.00   51.5    23   12.7   199    20.8   759.8    0.00 
 107   23:30   0.00   51.4    24   13.4   207    21.6   759.5    0.00 
 107   23:40   0.00   51.2    24   15.5   206    21.6   759.4    0.00 
 107   23:50   0.00   51.0    24   13.9   209    20.1   759.4    0.00 
 108    0:00   0.00   51.0    24   13.7   211    21.1   759.3    0.00 
 108    0:10   0.00   50.9    25   13.8   211    19.2   759.2    0.00 
 108    0:20   0.00   50.8    25   14.2   215    21.1   759.1    0.00 
 108    0:30   0.00   50.5    26   12.5   214    20.1   759.0    0.00 
 108    0:40   0.00   50.3    26   14.4   213    19.8   759.0    0.00 
 108    0:50   0.00   50.1    26   15.2   208    20.8   759.0    0.00 
 108    1:00   0.00   50.0    27   16.3   212    21.8   758.9    0.00 
 108    1:10   0.00   49.8    27   15.2   216    21.4   758.9    0.00 
 108    1:20   0.00   49.8    27   16.2   212    21.3   758.8    0.00 
 108    1:30   0.00   49.6    27   13.2   214    18.6   758.9    0.00 
 108    1:40   0.00   49.4    27   12.6   219    15.1   758.9    0.00 
 108    1:50   0.00   49.2    28   11.3   218    14.4   758.9    0.00 
 108    2:00   0.00   49.2    28   10.9   223    14.2   758.7    0.00 
 108    2:10   0.00   49.1    28   12.8   238    19.4   758.7    0.00 
 108    2:20   0.00   49.0    28   11.3   254    18.0   758.7    0.00 
 108    2:30   0.00   49.0    29   12.4   252    18.8   758.8    0.00 
 108    2:40   0.00   48.9    29   10.6   236    14.5   758.8    0.00 
 108    2:50   0.00   48.8    29   10.7   255    13.7   758.7    0.00 
 108    3:00   0.00   48.7    30   11.9   270    14.8   758.7    0.00 

Return to Tikaboo Peak graphs page.


Western Regional Climate Center,wrcc@dri.edu